Milo, Canada
Current Conditions -  °F | °C
As of 4:00 AM on Tuesday 21 Oct 2014 (Local Time) from CYYC Reporting Station
Scattered Clouds Scattered Clouds  
Wind Chill: 41°   Ceiling: Unl
Heat Index: 45°   Visibility: 15mi
Dew Point: 32°   Wind: 6mph
Humidity: 61%   Direction: 350°N
Pressure: 29.62"   Gusts: NA
Location:  50.57°N, 112.88°W
Report Text: CYYC 211000Z 35005KT 15SM SCT250 07/00 A2962 RMK CI4 SLP031 DENSITY ALT 3800FT
Loading
Personal Weather Stations






























Interactive Weather Map
Tropical Storm Tracking
New forecast layout! Learn more

10-Day Weather Forecast

Advertisements
Track Severe Weather on mobile